sensor_id;sensor_type;location;lat;lon;timestamp;P1;durP1;ratioP1;P2;durP2;ratioP2
295;SDS011;132;48.770;9.200;2023-07-31T00:00:10;5.50;;;2.50;;
295;SDS011;132;48.770;9.200;2023-07-31T00:02:41;6.17;;;2.60;;
295;SDS011;132;48.770;9.200;2023-07-31T00:05:12;7.10;;;2.40;;
295;SDS011;132;48.770;9.200;2023-07-31T00:07:42;5.73;;;2.60;;
295;SDS011;132;48.770;9.200;2023-07-31T00:10:13;7.67;;;2.63;;
295;SDS011;132;48.770;9.200;2023-07-31T00:12:44;3.90;;;2.43;;
295;SDS011;132;48.770;9.200;2023-07-31T00:15:17;4.53;;;2.70;;
295;SDS011;132;48.770;9.200;2023-07-31T00:17:47;6.87;;;2.87;;
295;SDS011;132;48.770;9.200;2023-07-31T00:20:17;4.67;;;2.47;;
295;SDS011;132;48.770;9.200;2023-07-31T00:22:47;4.60;;;2.63;;
295;SDS011;132;48.770;9.200;2023-07-31T00:25:17;4.17;;;2.70;;
295;SDS011;132;48.770;9.200;2023-07-31T00:27:46;6.30;;;2.40;;
295;SDS011;132;48.770;9.200;2023-07-31T00:30:17;7.13;;;2.43;;
295;SDS011;132;48.770;9.200;2023-07-31T00:32:50;5.70;;;2.87;;
295;SDS011;132;48.770;9.200;2023-07-31T00:35:19;6.43;;;2.67;;
295;SDS011;132;48.770;9.200;2023-07-31T00:37:50;7.37;;;2.43;;
295;SDS011;132;48.770;9.200;2023-07-31T00:40:21;8.00;;;3.37;;
295;SDS011;132;48.770;9.200;2023-07-31T00:42:53;4.40;;;2.53;;
295;SDS011;132;48.770;9.200;2023-07-31T00:45:24;4.67;;;2.70;;
295;SDS011;132;48.770;9.200;2023-07-31T00:47:56;7.33;;;2.30;;
295;SDS011;132;48.770;9.200;2023-07-31T00:50:32;6.03;;;2.90;;
295;SDS011;132;48.770;9.200;2023-07-31T00:53:04;6.27;;;2.60;;
295;SDS011;132;48.770;9.200;2023-07-31T00:55:39;9.60;;;3.07;;
295;SDS011;132;48.770;9.200;2023-07-31T00:58:10;6.50;;;3.13;;
295;SDS011;132;48.770;9.200;2023-07-31T01:00:43;4.23;;;2.63;;
295;SDS011;132;48.770;9.200;2023-07-31T01:03:12;3.77;;;2.50;;
295;SDS011;132;48.770;9.200;2023-07-31T01:09:11;5.40;;;2.70;;
295;SDS011;132;48.770;9.200;2023-07-31T01:12:06;7.87;;;2.50;;
295;SDS011;132;48.770;9.200;2023-07-31T01:14:39;5.30;;;2.40;;
295;SDS011;132;48.770;9.200;2023-07-31T01:17:16;4.00;;;2.80;;
295;SDS011;132;48.770;9.200;2023-07-31T01:19:47;6.27;;;3.00;;
295;SDS011;132;48.770;9.200;2023-07-31T01:27:53;4.77;;;2.70;;
295;SDS011;132;48.770;9.200;2023-07-31T01:30:34;4.73;;;2.60;;
295;SDS011;132;48.770;9.200;2023-07-31T01:33:14;4.93;;;2.67;;
295;SDS011;132;48.770;9.200;2023-07-31T01:35:48;5.90;;;2.60;;
295;SDS011;132;48.770;9.200;2023-07-31T01:38:22;3.83;;;2.60;;
295;SDS011;132;48.770;9.200;2023-07-31T01:40:56;6.90;;;2.60;;
295;SDS011;132;48.770;9.200;2023-07-31T01:43:45;4.17;;;2.80;;
295;SDS011;132;48.770;9.200;2023-07-31T01:46:17;6.57;;;3.07;;
295;SDS011;132;48.770;9.200;2023-07-31T01:48:46;7.37;;;2.80;;
295;SDS011;132;48.770;9.200;2023-07-31T01:51:17;3.77;;;2.77;;
295;SDS011;132;48.770;9.200;2023-07-31T01:53:48;5.70;;;2.60;;
295;SDS011;132;48.770;9.200;2023-07-31T01:56:18;4.83;;;3.17;;
295;SDS011;132;48.770;9.200;2023-07-31T01:58:48;6.37;;;2.83;;
295;SDS011;132;48.770;9.200;2023-07-31T02:01:22;5.60;;;2.60;;
295;SDS011;132;48.770;9.200;2023-07-31T02:03:54;4.53;;;2.60;;
295;SDS011;132;48.770;9.200;2023-07-31T02:06:26;5.60;;;2.90;;
295;SDS011;132;48.770;9.200;2023-07-31T02:08:58;5.80;;;2.50;;
295;SDS011;132;48.770;9.200;2023-07-31T02:11:29;7.40;;;2.63;;
295;SDS011;132;48.770;9.200;2023-07-31T02:14:00;8.63;;;2.77;;
295;SDS011;132;48.770;9.200;2023-07-31T02:16:30;5.50;;;3.00;;
295;SDS011;132;48.770;9.200;2023-07-31T02:19:04;7.73;;;3.17;;
295;SDS011;132;48.770;9.200;2023-07-31T02:21:37;6.20;;;2.90;;
295;SDS011;132;48.770;9.200;2023-07-31T02:24:06;11.13;;;2.90;;
295;SDS011;132;48.770;9.200;2023-07-31T02:26:37;5.70;;;2.60;;
295;SDS011;132;48.770;9.200;2023-07-31T02:29:08;4.90;;;2.80;;
295;SDS011;132;48.770;9.200;2023-07-31T02:31:39;5.83;;;2.63;;
295;SDS011;132;48.770;9.200;2023-07-31T02:34:10;7.50;;;3.13;;
295;SDS011;132;48.770;9.200;2023-07-31T02:36:48;6.10;;;2.67;;
295;SDS011;132;48.770;9.200;2023-07-31T02:39:18;6.33;;;2.90;;
295;SDS011;132;48.770;9.200;2023-07-31T02:41:51;7.03;;;2.53;;
295;SDS011;132;48.770;9.200;2023-07-31T02:44:20;5.77;;;3.33;;
295;SDS011;132;48.770;9.200;2023-07-31T02:46:53;7.17;;;2.87;;
295;SDS011;132;48.770;9.200;2023-07-31T02:49:24;3.90;;;2.70;;
295;SDS011;132;48.770;9.200;2023-07-31T02:51:59;5.20;;;2.70;;
295;SDS011;132;48.770;9.200;2023-07-31T02:54:30;4.67;;;2.63;;
295;SDS011;132;48.770;9.200;2023-07-31T02:57:02;6.00;;;2.77;;
295;SDS011;132;48.770;9.200;2023-07-31T02:59:34;6.97;;;2.90;;
295;SDS011;132;48.770;9.200;2023-07-31T03:02:08;7.37;;;2.80;;
295;SDS011;132;48.770;9.200;2023-07-31T03:04:44;4.60;;;2.50;;
295;SDS011;132;48.770;9.200;2023-07-31T03:07:15;10.07;;;3.00;;
295;SDS011;132;48.770;9.200;2023-07-31T03:09:45;5.27;;;2.97;;
295;SDS011;132;48.770;9.200;2023-07-31T03:12:18;8.00;;;3.00;;
295;SDS011;132;48.770;9.200;2023-07-31T03:14:48;8.50;;;2.60;;
295;SDS011;132;48.770;9.200;2023-07-31T03:17:19;3.00;;;2.33;;
295;SDS011;132;48.770;9.200;2023-07-31T03:19:51;5.57;;;2.50;;
295;SDS011;132;48.770;9.200;2023-07-31T03:22:24;5.43;;;2.70;;
295;SDS011;132;48.770;9.200;2023-07-31T03:24:54;8.13;;;2.50;;
295;SDS011;132;48.770;9.200;2023-07-31T03:27:26;5.93;;;2.90;;
295;SDS011;132;48.770;9.200;2023-07-31T03:30:12;5.60;;;2.87;;
295;SDS011;132;48.770;9.200;2023-07-31T03:32:43;7.47;;;2.77;;
295;SDS011;132;48.770;9.200;2023-07-31T03:35:13;5.63;;;2.83;;
295;SDS011;132;48.770;9.200;2023-07-31T03:37:45;7.60;;;3.03;;
295;SDS011;132;48.770;9.200;2023-07-31T03:40:15;4.50;;;2.70;;
295;SDS011;132;48.770;9.200;2023-07-31T03:42:45;7.97;;;2.57;;
295;SDS011;132;48.770;9.200;2023-07-31T03:45:17;6.97;;;2.87;;
295;SDS011;132;48.770;9.200;2023-07-31T03:47:50;15.40;;;3.27;;
295;SDS011;132;48.770;9.200;2023-07-31T03:50:24;5.80;;;2.67;;
295;SDS011;132;48.770;9.200;2023-07-31T03:52:56;7.40;;;2.80;;
295;SDS011;132;48.770;9.200;2023-07-31T03:55:42;4.53;;;2.53;;
295;SDS011;132;48.770;9.200;2023-07-31T03:58:13;5.00;;;2.70;;
295;SDS011;132;48.770;9.200;2023-07-31T04:00:41;5.30;;;2.80;;
295;SDS011;132;48.770;9.200;2023-07-31T04:03:10;3.90;;;2.47;;
295;SDS011;132;48.770;9.200;2023-07-31T04:05:40;3.70;;;2.70;;
295;SDS011;132;48.770;9.200;2023-07-31T04:08:11;5.23;;;2.77;;
295;SDS011;132;48.770;9.200;2023-07-31T04:10:40;5.43;;;2.77;;
295;SDS011;132;48.770;9.200;2023-07-31T04:13:12;5.17;;;2.40;;
295;SDS011;132;48.770;9.200;2023-07-31T04:15:47;9.90;;;2.77;;
295;SDS011;132;48.770;9.200;2023-07-31T04:18:21;7.77;;;2.77;;
295;SDS011;132;48.770;9.200;2023-07-31T04:20:51;9.30;;;3.10;;
295;SDS011;132;48.770;9.200;2023-07-31T04:23:22;4.30;;;2.70;;
295;SDS011;132;48.770;9.200;2023-07-31T04:25:53;5.00;;;2.80;;
295;SDS011;132;48.770;9.200;2023-07-31T04:28:26;4.63;;;2.40;;
295;SDS011;132;48.770;9.200;2023-07-31T04:30:57;7.07;;;2.80;;
295;SDS011;132;48.770;9.200;2023-07-31T04:33:30;5.50;;;2.77;;
295;SDS011;132;48.770;9.200;2023-07-31T04:36:02;5.63;;;2.63;;
295;SDS011;132;48.770;9.200;2023-07-31T04:38:33;3.70;;;2.70;;
295;SDS011;132;48.770;9.200;2023-07-31T04:41:03;5.97;;;2.60;;
295;SDS011;132;48.770;9.200;2023-07-31T04:43:36;4.23;;;2.63;;
295;SDS011;132;48.770;9.200;2023-07-31T04:46:07;4.03;;;2.50;;
295;SDS011;132;48.770;9.200;2023-07-31T04:48:38;4.00;;;2.60;;
295;SDS011;132;48.770;9.200;2023-07-31T04:51:07;4.20;;;2.60;;
295;SDS011;132;48.770;9.200;2023-07-31T04:53:37;3.43;;;2.50;;
295;SDS011;132;48.770;9.200;2023-07-31T04:56:07;6.10;;;3.13;;
295;SDS011;132;48.770;9.200;2023-07-31T04:58:37;5.73;;;2.53;;
295;SDS011;132;48.770;9.200;2023-07-31T05:01:08;6.70;;;3.00;;
295;SDS011;132;48.770;9.200;2023-07-31T05:03:42;6.10;;;2.70;;
295;SDS011;132;48.770;9.200;2023-07-31T05:06:14;4.93;;;2.93;;
295;SDS011;132;48.770;9.200;2023-07-31T05:08:44;4.93;;;3.00;;
295;SDS011;132;48.770;9.200;2023-07-31T05:11:15;5.97;;;2.87;;
295;SDS011;132;48.770;9.200;2023-07-31T05:13:45;4.87;;;2.80;;
295;SDS011;132;48.770;9.200;2023-07-31T05:16:16;5.33;;;2.70;;
295;SDS011;132;48.770;9.200;2023-07-31T05:18:47;7.57;;;3.27;;
295;SDS011;132;48.770;9.200;2023-07-31T05:21:18;5.23;;;2.90;;
295;SDS011;132;48.770;9.200;2023-07-31T05:23:51;6.03;;;2.70;;
295;SDS011;132;48.770;9.200;2023-07-31T05:26:21;5.57;;;2.63;;
295;SDS011;132;48.770;9.200;2023-07-31T05:28:55;6.03;;;2.60;;
295;SDS011;132;48.770;9.200;2023-07-31T05:31:29;5.87;;;2.90;;
295;SDS011;132;48.770;9.200;2023-07-31T05:34:03;4.33;;;2.63;;
295;SDS011;132;48.770;9.200;2023-07-31T05:36:34;4.97;;;3.13;;
295;SDS011;132;48.770;9.200;2023-07-31T05:39:04;6.10;;;3.17;;
295;SDS011;132;48.770;9.200;2023-07-31T05:41:37;7.77;;;3.00;;
295;SDS011;132;48.770;9.200;2023-07-31T05:44:09;5.70;;;3.00;;
295;SDS011;132;48.770;9.200;2023-07-31T05:46:42;4.33;;;2.50;;
295;SDS011;132;48.770;9.200;2023-07-31T05:49:15;4.10;;;2.63;;
295;SDS011;132;48.770;9.200;2023-07-31T05:51:46;10.20;;;3.37;;
295;SDS011;132;48.770;9.200;2023-07-31T05:54:17;6.43;;;3.20;;
295;SDS011;132;48.770;9.200;2023-07-31T05:57:04;8.30;;;2.90;;
295;SDS011;132;48.770;9.200;2023-07-31T05:59:35;6.60;;;2.90;;
295;SDS011;132;48.770;9.200;2023-07-31T06:02:06;6.10;;;3.10;;
295;SDS011;132;48.770;9.200;2023-07-31T06:04:38;6.37;;;3.07;;
295;SDS011;132;48.770;9.200;2023-07-31T06:07:08;7.13;;;3.00;;
295;SDS011;132;48.770;9.200;2023-07-31T06:09:38;6.97;;;3.07;;
295;SDS011;132;48.770;9.200;2023-07-31T06:12:08;7.27;;;3.60;;
295;SDS011;132;48.770;9.200;2023-07-31T06:14:39;8.97;;;4.00;;
295;SDS011;132;48.770;9.200;2023-07-31T06:17:11;11.33;;;5.70;;
295;SDS011;132;48.770;9.200;2023-07-31T06:19:42;12.97;;;12.27;;
295;SDS011;132;48.770;9.200;2023-07-31T06:22:28;7.30;;;4.20;;
295;SDS011;132;48.770;9.200;2023-07-31T06:24:59;12.37;;;6.33;;
295;SDS011;132;48.770;9.200;2023-07-31T06:27:31;11.10;;;10.50;;
295;SDS011;132;48.770;9.200;2023-07-31T06:30:01;19.23;;;18.27;;
295;SDS011;132;48.770;9.200;2023-07-31T06:32:33;44.03;;;41.90;;
295;SDS011;132;48.770;9.200;2023-07-31T06:35:04;28.37;;;26.97;;
295;SDS011;132;48.770;9.200;2023-07-31T06:37:35;15.90;;;13.57;;
295;SDS011;132;48.770;9.200;2023-07-31T06:40:08;13.80;;;13.10;;
295;SDS011;132;48.770;9.200;2023-07-31T06:42:41;10.63;;;10.07;;
295;SDS011;132;48.770;9.200;2023-07-31T06:45:11;17.50;;;16.60;;
295;SDS011;132;48.770;9.200;2023-07-31T06:47:45;29.70;;;28.23;;
295;SDS011;132;48.770;9.200;2023-07-31T06:50:20;11.10;;;10.50;;
295;SDS011;132;48.770;9.200;2023-07-31T06:52:52;13.97;;;13.27;;
295;SDS011;132;48.770;9.200;2023-07-31T06:55:24;7.90;;;7.50;;
295;SDS011;132;48.770;9.200;2023-07-31T06:57:58;30.47;;;28.97;;
295;SDS011;132;48.770;9.200;2023-07-31T07:00:29;57.03;;;54.27;;
295;SDS011;132;48.770;9.200;2023-07-31T07:02:59;7.33;;;6.77;;
295;SDS011;132;48.770;9.200;2023-07-31T07:05:31;17.77;;;16.87;;
295;SDS011;132;48.770;9.200;2023-07-31T07:08:03;7.03;;;4.70;;
295;SDS011;132;48.770;9.200;2023-07-31T07:10:36;13.30;;;12.60;;
295;SDS011;132;48.770;9.200;2023-07-31T07:13:07;14.13;;;11.60;;
295;SDS011;132;48.770;9.200;2023-07-31T07:15:39;8.43;;;5.33;;
295;SDS011;132;48.770;9.200;2023-07-31T07:18:11;15.40;;;14.60;;
295;SDS011;132;48.770;9.200;2023-07-31T07:20:48;9.37;;;8.77;;
295;SDS011;132;48.770;9.200;2023-07-31T07:23:20;25.03;;;23.80;;
295;SDS011;132;48.770;9.200;2023-07-31T07:25:51;100.17;;;95.33;;
295;SDS011;132;48.770;9.200;2023-07-31T07:28:25;207.20;;;197.30;;
295;SDS011;132;48.770;9.200;2023-07-31T07:30:56;201.80;;;192.13;;
295;SDS011;132;48.770;9.200;2023-07-31T07:33:30;9.30;;;8.80;;
295;SDS011;132;48.770;9.200;2023-07-31T07:36:01;17.17;;;16.20;;
295;SDS011;132;48.770;9.200;2023-07-31T07:38:32;10.10;;;5.87;;
295;SDS011;132;48.770;9.200;2023-07-31T07:41:05;6.90;;;5.90;;
295;SDS011;132;48.770;9.200;2023-07-31T07:43:44;45.47;;;43.27;;
295;SDS011;132;48.770;9.200;2023-07-31T07:46:14;97.93;;;93.23;;
295;SDS011;132;48.770;9.200;2023-07-31T07:48:43;152.47;;;145.13;;
295;SDS011;132;48.770;9.200;2023-07-31T07:51:13;342.17;;;325.80;;
295;SDS011;132;48.770;9.200;2023-07-31T07:53:41;541.60;;;515.77;;
295;SDS011;132;48.770;9.200;2023-07-31T07:56:16;331.13;;;315.30;;
295;SDS011;132;48.770;9.200;2023-07-31T07:58:48;595.27;;;566.90;;
295;SDS011;132;48.770;9.200;2023-07-31T08:01:18;107.10;;;101.93;;
295;SDS011;132;48.770;9.200;2023-07-31T08:03:47;344.43;;;328.00;;
295;SDS011;132;48.770;9.200;2023-07-31T08:06:16;749.07;;;713.37;;
295;SDS011;132;48.770;9.200;2023-07-31T08:08:47;119.10;;;113.37;;
295;SDS011;132;48.770;9.200;2023-07-31T08:11:22;864.20;;;823.00;;
295;SDS011;132;48.770;9.200;2023-07-31T08:13:52;305.93;;;291.33;;
295;SDS011;132;48.770;9.200;2023-07-31T08:16:23;455.27;;;433.53;;
295;SDS011;132;48.770;9.200;2023-07-31T08:18:55;752.57;;;716.70;;
295;SDS011;132;48.770;9.200;2023-07-31T08:21:25;797.57;;;759.53;;
295;SDS011;132;48.770;9.200;2023-07-31T08:23:56;844.57;;;804.30;;
295;SDS011;132;48.770;9.200;2023-07-31T08:26:27;761.90;;;725.60;;
295;SDS011;132;48.770;9.200;2023-07-31T08:29:00;896.77;;;854.00;;
295;SDS011;132;48.770;9.200;2023-07-31T08:31:32;925.63;;;881.53;;
295;SDS011;132;48.770;9.200;2023-07-31T08:34:03;942.53;;;897.60;;
295;SDS011;132;48.770;9.200;2023-07-31T08:36:50;161.33;;;153.60;;
295;SDS011;132;48.770;9.200;2023-07-31T08:39:20;743.33;;;707.90;;
295;SDS011;132;48.770;9.200;2023-07-31T08:41:51;981.97;;;935.17;;
295;SDS011;132;48.770;9.200;2023-07-31T08:44:27;645.27;;;614.47;;
295;SDS011;132;48.770;9.200;2023-07-31T08:47:01;658.37;;;626.97;;
295;SDS011;132;48.770;9.200;2023-07-31T08:49:33;1043.17;;;992.97;;
295;SDS011;132;48.770;9.200;2023-07-31T08:52:06;18.17;;;17.27;;
295;SDS011;132;48.770;9.200;2023-07-31T08:54:37;29.13;;;27.73;;
295;SDS011;132;48.770;9.200;2023-07-31T08:57:08;155.23;;;147.80;;
295;SDS011;132;48.770;9.200;2023-07-31T08:59:42;62.97;;;59.93;;
295;SDS011;132;48.770;9.200;2023-07-31T09:02:31;715.30;;;681.20;;
295;SDS011;132;48.770;9.200;2023-07-31T09:05:09;19.77;;;18.77;;
295;SDS011;132;48.770;9.200;2023-07-31T09:07:41;792.73;;;754.93;;
295;SDS011;132;48.770;9.200;2023-07-31T09:10:19;626.73;;;596.83;;
295;SDS011;132;48.770;9.200;2023-07-31T09:12:48;845.27;;;804.97;;
295;SDS011;132;48.770;9.200;2023-07-31T09:15:20;962.07;;;916.20;;
295;SDS011;132;48.770;9.200;2023-07-31T09:17:59;1111.13;;;999.90;;
295;SDS011;132;48.770;9.200;2023-07-31T09:20:35;85.00;;;80.90;;
295;SDS011;132;48.770;9.200;2023-07-31T09:23:13;448.60;;;427.20;;
295;SDS011;132;48.770;9.200;2023-07-31T09:25:48;413.07;;;393.37;;
295;SDS011;132;48.770;9.200;2023-07-31T09:28:20;594.67;;;566.30;;
295;SDS011;132;48.770;9.200;2023-07-31T09:31:06;28.80;;;27.40;;
295;SDS011;132;48.770;9.200;2023-07-31T09:33:46;133.37;;;126.97;;
295;SDS011;132;48.770;9.200;2023-07-31T09:36:28;12.43;;;11.83;;
295;SDS011;132;48.770;9.200;2023-07-31T09:39:01;8.43;;;6.30;;
295;SDS011;132;48.770;9.200;2023-07-31T09:41:40;7.43;;;4.10;;
295;SDS011;132;48.770;9.200;2023-07-31T09:44:16;10.83;;;4.80;;
295;SDS011;132;48.770;9.200;2023-07-31T09:46:49;9.47;;;4.93;;
295;SDS011;132;48.770;9.200;2023-07-31T09:49:21;11.30;;;8.73;;
295;SDS011;132;48.770;9.200;2023-07-31T09:51:56;1103.23;;;999.90;;
295;SDS011;132;48.770;9.200;2023-07-31T09:54:26;1106.03;;;999.90;;
295;SDS011;132;48.770;9.200;2023-07-31T09:57:06;266.37;;;253.63;;
295;SDS011;132;48.770;9.200;2023-07-31T09:59:36;340.37;;;324.10;;
295;SDS011;132;48.770;9.200;2023-07-31T10:02:05;983.27;;;936.40;;
295;SDS011;132;48.770;9.200;2023-07-31T10:04:39;9.77;;;9.27;;
295;SDS011;132;48.770;9.200;2023-07-31T10:07:10;104.50;;;99.47;;
295;SDS011;132;48.770;9.200;2023-07-31T10:09:42;1163.07;;;999.90;;
295;SDS011;132;48.770;9.200;2023-07-31T10:12:28;1056.07;;;999.90;;
295;SDS011;132;48.770;9.200;2023-07-31T10:15:05;1048.20;;;996.37;;
295;SDS011;132;48.770;9.200;2023-07-31T10:17:35;962.10;;;916.27;;
295;SDS011;132;48.770;9.200;2023-07-31T10:20:05;900.87;;;857.93;;
295;SDS011;132;48.770;9.200;2023-07-31T10:22:35;1199.97;;;999.90;;
295;SDS011;132;48.770;9.200;2023-07-31T10:25:05;36.73;;;34.93;;
295;SDS011;132;48.770;9.200;2023-07-31T10:27:39;1228.90;;;999.90;;
295;SDS011;132;48.770;9.200;2023-07-31T10:30:11;26.87;;;25.57;;
295;SDS011;132;48.770;9.200;2023-07-31T10:32:43;189.27;;;180.23;;
295;SDS011;132;48.770;9.200;2023-07-31T10:35:13;1244.13;;;999.90;;
295;SDS011;132;48.770;9.200;2023-07-31T10:37:44;18.33;;;17.43;;
295;SDS011;132;48.770;9.200;2023-07-31T10:40:16;1223.67;;;999.90;;
295;SDS011;132;48.770;9.200;2023-07-31T10:42:54;40.10;;;38.13;;
295;SDS011;132;48.770;9.200;2023-07-31T10:45:27;1245.30;;;999.90;;
295;SDS011;132;48.770;9.200;2023-07-31T10:48:06;1177.23;;;999.90;;
295;SDS011;132;48.770;9.200;2023-07-31T10:50:46;28.93;;;27.50;;
295;SDS011;132;48.770;9.200;2023-07-31T10:53:24;451.37;;;429.83;;
295;SDS011;132;48.770;9.200;2023-07-31T10:55:53;15.27;;;14.30;;
295;SDS011;132;48.770;9.200;2023-07-31T10:58:36;17.07;;;16.20;;
295;SDS011;132;48.770;9.200;2023-07-31T11:01:06;994.47;;;947.03;;
295;SDS011;132;48.770;9.200;2023-07-31T11:03:46;1228.40;;;999.90;;
295;SDS011;132;48.770;9.200;2023-07-31T11:06:18;1264.63;;;999.90;;
295;SDS011;132;48.770;9.200;2023-07-31T11:08:51;50.83;;;48.37;;
295;SDS011;132;48.770;9.200;2023-07-31T11:11:21;30.30;;;28.80;;
295;SDS011;132;48.770;9.200;2023-07-31T11:13:52;45.20;;;43.00;;
295;SDS011;132;48.770;9.200;2023-07-31T11:16:24;13.57;;;8.73;;
295;SDS011;132;48.770;9.200;2023-07-31T11:18:54;8.03;;;6.63;;
295;SDS011;132;48.770;9.200;2023-07-31T11:21:26;11.80;;;5.70;;
295;SDS011;132;48.770;9.200;2023-07-31T11:23:57;8.37;;;5.17;;
295;SDS011;132;48.770;9.200;2023-07-31T11:26:29;6.53;;;4.40;;
295;SDS011;132;48.770;9.200;2023-07-31T11:29:02;9.20;;;4.40;;
295;SDS011;132;48.770;9.200;2023-07-31T11:31:44;8.27;;;4.50;;
295;SDS011;132;48.770;9.200;2023-07-31T11:34:18;7.93;;;4.17;;
295;SDS011;132;48.770;9.200;2023-07-31T11:36:55;7.43;;;3.83;;
295;SDS011;132;48.770;9.200;2023-07-31T11:39:25;6.97;;;4.23;;
295;SDS011;132;48.770;9.200;2023-07-31T11:41:58;7.87;;;4.50;;
295;SDS011;132;48.770;9.200;2023-07-31T11:44:37;8.80;;;7.10;;
295;SDS011;132;48.770;9.200;2023-07-31T11:47:15;7.13;;;5.67;;
295;SDS011;132;48.770;9.200;2023-07-31T11:49:48;7.87;;;7.47;;
295;SDS011;132;48.770;9.200;2023-07-31T11:52:37;10.97;;;10.30;;
295;SDS011;132;48.770;9.200;2023-07-31T11:55:10;13.03;;;12.37;;
295;SDS011;132;48.770;9.200;2023-07-31T11:57:40;11.07;;;7.33;;
295;SDS011;132;48.770;9.200;2023-07-31T12:00:11;10.20;;;4.80;;
295;SDS011;132;48.770;9.200;2023-07-31T12:02:42;8.97;;;4.80;;
295;SDS011;132;48.770;9.200;2023-07-31T12:05:12;8.77;;;5.03;;
295;SDS011;132;48.770;9.200;2023-07-31T12:07:44;9.10;;;5.93;;
295;SDS011;132;48.770;9.200;2023-07-31T12:10:22;5.70;;;4.30;;
295;SDS011;132;48.770;9.200;2023-07-31T12:15:33;11.97;;;10.07;;
295;SDS011;132;48.770;9.200;2023-07-31T12:18:13;8.37;;;5.80;;
295;SDS011;132;48.770;9.200;2023-07-31T12:20:54;6.53;;;3.97;;
295;SDS011;132;48.770;9.200;2023-07-31T12:23:29;7.87;;;4.20;;
295;SDS011;132;48.770;9.200;2023-07-31T12:26:07;8.47;;;4.50;;
295;SDS011;132;48.770;9.200;2023-07-31T12:31:22;7.23;;;4.33;;
295;SDS011;132;48.770;9.200;2023-07-31T12:33:53;5.97;;;4.07;;
295;SDS011;132;48.770;9.200;2023-07-31T12:36:26;8.87;;;4.60;;
295;SDS011;132;48.770;9.200;2023-07-31T12:38:59;6.03;;;4.00;;
295;SDS011;132;48.770;9.200;2023-07-31T12:41:31;7.00;;;4.10;;
295;SDS011;132;48.770;9.200;2023-07-31T12:44:01;8.13;;;3.73;;
295;SDS011;132;48.770;9.200;2023-07-31T12:46:34;7.77;;;3.83;;
295;SDS011;132;48.770;9.200;2023-07-31T12:49:05;6.27;;;3.83;;
295;SDS011;132;48.770;9.200;2023-07-31T12:51:39;4.77;;;3.77;;
295;SDS011;132;48.770;9.200;2023-07-31T12:54:11;7.73;;;3.63;;
295;SDS011;132;48.770;9.200;2023-07-31T12:56:57;5.80;;;3.70;;
295;SDS011;132;48.770;9.200;2023-07-31T12:59:29;8.83;;;4.00;;
295;SDS011;132;48.770;9.200;2023-07-31T13:01:59;6.73;;;4.13;;
295;SDS011;132;48.770;9.200;2023-07-31T13:04:28;8.23;;;4.03;;
295;SDS011;132;48.770;9.200;2023-07-31T13:06:57;7.97;;;4.97;;
295;SDS011;132;48.770;9.200;2023-07-31T13:09:33;8.60;;;4.53;;
295;SDS011;132;48.770;9.200;2023-07-31T13:12:04;7.73;;;4.23;;
295;SDS011;132;48.770;9.200;2023-07-31T13:14:35;9.87;;;4.40;;
295;SDS011;132;48.770;9.200;2023-07-31T13:17:05;7.10;;;4.93;;
295;SDS011;132;48.770;9.200;2023-07-31T13:19:35;8.87;;;8.00;;
295;SDS011;132;48.770;9.200;2023-07-31T13:22:06;10.80;;;7.63;;
295;SDS011;132;48.770;9.200;2023-07-31T13:24:37;9.80;;;6.20;;
295;SDS011;132;48.770;9.200;2023-07-31T13:27:11;8.70;;;6.23;;
295;SDS011;132;48.770;9.200;2023-07-31T13:29:42;8.83;;;5.67;;
295;SDS011;132;48.770;9.200;2023-07-31T13:32:16;9.40;;;8.23;;
295;SDS011;132;48.770;9.200;2023-07-31T13:34:48;9.90;;;9.10;;
295;SDS011;132;48.770;9.200;2023-07-31T13:37:35;9.70;;;7.77;;
295;SDS011;132;48.770;9.200;2023-07-31T13:40:10;6.33;;;5.53;;
295;SDS011;132;48.770;9.200;2023-07-31T13:42:40;7.43;;;5.37;;
295;SDS011;132;48.770;9.200;2023-07-31T13:45:09;7.97;;;5.20;;
295;SDS011;132;48.770;9.200;2023-07-31T13:47:38;6.77;;;4.90;;
295;SDS011;132;48.770;9.200;2023-07-31T13:50:07;9.03;;;5.10;;
295;SDS011;132;48.770;9.200;2023-07-31T13:52:40;7.73;;;5.27;;
295;SDS011;132;48.770;9.200;2023-07-31T13:55:09;7.97;;;5.70;;
295;SDS011;132;48.770;9.200;2023-07-31T13:57:38;7.17;;;4.63;;
295;SDS011;132;48.770;9.200;2023-07-31T14:00:07;6.30;;;4.10;;
295;SDS011;132;48.770;9.200;2023-07-31T14:02:37;7.27;;;4.60;;
295;SDS011;132;48.770;9.200;2023-07-31T14:05:09;7.53;;;4.53;;
295;SDS011;132;48.770;9.200;2023-07-31T14:07:39;8.27;;;4.40;;
295;SDS011;132;48.770;9.200;2023-07-31T14:10:10;5.57;;;3.40;;
295;SDS011;132;48.770;9.200;2023-07-31T14:12:42;8.90;;;4.00;;
295;SDS011;132;48.770;9.200;2023-07-31T14:15:12;12.80;;;3.93;;
295;SDS011;132;48.770;9.200;2023-07-31T14:17:43;6.10;;;3.70;;
295;SDS011;132;48.770;9.200;2023-07-31T14:20:13;6.43;;;3.90;;
295;SDS011;132;48.770;9.200;2023-07-31T14:22:45;5.90;;;3.93;;
295;SDS011;132;48.770;9.200;2023-07-31T14:25:15;6.67;;;3.50;;
295;SDS011;132;48.770;9.200;2023-07-31T14:27:45;6.53;;;4.07;;
295;SDS011;132;48.770;9.200;2023-07-31T14:30:16;7.83;;;4.10;;
295;SDS011;132;48.770;9.200;2023-07-31T14:32:48;7.80;;;3.90;;
295;SDS011;132;48.770;9.200;2023-07-31T14:35:19;10.53;;;4.17;;
295;SDS011;132;48.770;9.200;2023-07-31T14:37:50;8.33;;;3.70;;
295;SDS011;132;48.770;9.200;2023-07-31T14:40:20;7.77;;;3.63;;
295;SDS011;132;48.770;9.200;2023-07-31T14:42:52;7.90;;;3.93;;
295;SDS011;132;48.770;9.200;2023-07-31T14:45:23;7.60;;;4.10;;
295;SDS011;132;48.770;9.200;2023-07-31T14:47:55;8.87;;;4.40;;
295;SDS011;132;48.770;9.200;2023-07-31T14:50:27;13.00;;;4.77;;
295;SDS011;132;48.770;9.200;2023-07-31T14:52:58;8.23;;;4.40;;
295;SDS011;132;48.770;9.200;2023-07-31T14:55:29;6.67;;;4.53;;
295;SDS011;132;48.770;9.200;2023-07-31T14:58:00;9.17;;;4.67;;
295;SDS011;132;48.770;9.200;2023-07-31T15:00:46;7.80;;;4.70;;
295;SDS011;132;48.770;9.200;2023-07-31T15:03:18;5.37;;;4.13;;
295;SDS011;132;48.770;9.200;2023-07-31T15:05:49;9.87;;;4.10;;
295;SDS011;132;48.770;9.200;2023-07-31T15:08:22;7.63;;;4.63;;
295;SDS011;132;48.770;9.200;2023-07-31T15:10:54;7.17;;;4.10;;
295;SDS011;132;48.770;9.200;2023-07-31T15:13:29;7.93;;;4.77;;
295;SDS011;132;48.770;9.200;2023-07-31T15:16:01;5.70;;;4.20;;
295;SDS011;132;48.770;9.200;2023-07-31T15:18:37;6.07;;;4.33;;
295;SDS011;132;48.770;9.200;2023-07-31T15:21:10;7.97;;;4.53;;
295;SDS011;132;48.770;9.200;2023-07-31T15:23:43;5.90;;;3.90;;
295;SDS011;132;48.770;9.200;2023-07-31T15:26:15;8.60;;;4.10;;
295;SDS011;132;48.770;9.200;2023-07-31T15:29:02;6.27;;;3.50;;
295;SDS011;132;48.770;9.200;2023-07-31T15:31:38;6.73;;;3.53;;
295;SDS011;132;48.770;9.200;2023-07-31T15:34:11;8.47;;;3.90;;
295;SDS011;132;48.770;9.200;2023-07-31T15:36:44;6.20;;;4.00;;
295;SDS011;132;48.770;9.200;2023-07-31T15:39:17;5.03;;;3.90;;
295;SDS011;132;48.770;9.200;2023-07-31T15:41:48;9.70;;;3.50;;
295;SDS011;132;48.770;9.200;2023-07-31T15:44:20;6.03;;;3.37;;
295;SDS011;132;48.770;9.200;2023-07-31T15:46:53;5.00;;;3.50;;
295;SDS011;132;48.770;9.200;2023-07-31T15:49:27;6.97;;;3.43;;
295;SDS011;132;48.770;9.200;2023-07-31T15:51:57;5.23;;;3.43;;
295;SDS011;132;48.770;9.200;2023-07-31T15:54:27;7.83;;;4.40;;
295;SDS011;132;48.770;9.200;2023-07-31T15:56:59;7.23;;;3.63;;
295;SDS011;132;48.770;9.200;2023-07-31T15:59:31;6.60;;;3.97;;
295;SDS011;132;48.770;9.200;2023-07-31T16:02:01;6.67;;;4.17;;
295;SDS011;132;48.770;9.200;2023-07-31T16:04:32;7.40;;;3.77;;
295;SDS011;132;48.770;9.200;2023-07-31T16:07:03;5.73;;;3.53;;
295;SDS011;132;48.770;9.200;2023-07-31T16:09:34;7.30;;;3.70;;
295;SDS011;132;48.770;9.200;2023-07-31T16:12:06;9.37;;;3.80;;
295;SDS011;132;48.770;9.200;2023-07-31T16:14:37;6.30;;;3.73;;
295;SDS011;132;48.770;9.200;2023-07-31T16:17:09;6.50;;;3.40;;